createdAt,value
2018-09-25T00:00:48.540Z,8.73
2018-09-25T00:01:48.466Z,8.66
2018-09-25T00:02:48.385Z,8.58
2018-09-25T00:03:48.306Z,8.58
2018-09-25T00:04:48.227Z,8.59
2018-09-25T00:05:48.161Z,8.59
2018-09-25T00:06:48.077Z,8.58
2018-09-25T00:07:47.994Z,8.56
2018-09-25T00:08:47.914Z,8.58
2018-09-25T00:09:47.836Z,8.50
2018-09-25T00:10:47.760Z,8.50
2018-09-25T00:11:47.681Z,8.52
2018-09-25T00:12:47.604Z,8.34
2018-09-25T00:13:47.526Z,8.37
2018-09-25T00:14:47.451Z,8.40
2018-09-25T00:15:47.367Z,8.30
2018-09-25T00:16:47.290Z,8.36
2018-09-25T00:17:47.214Z,8.29
2018-09-25T00:18:47.134Z,8.33
2018-09-25T00:19:47.057Z,8.36
2018-09-25T00:20:46.981Z,8.47
2018-09-25T00:21:46.899Z,8.43
2018-09-25T00:22:46.822Z,8.33
2018-09-25T00:23:46.745Z,8.25
2018-09-25T00:24:46.663Z,8.25
2018-09-25T00:25:46.585Z,8.20
2018-09-25T00:26:46.509Z,8.11
2018-09-25T00:27:46.431Z,8.11
2018-09-25T00:28:46.351Z,8.15
2018-09-25T00:29:46.277Z,8.08
2018-09-25T00:30:46.195Z,8.04
2018-09-25T00:31:46.127Z,8.07
2018-09-25T00:32:46.044Z,8.04
2018-09-25T00:33:45.956Z,8.10
2018-09-25T00:34:45.881Z,8.08
2018-09-25T00:35:45.801Z,8.08
2018-09-25T00:36:45.724Z,8.11
2018-09-25T00:37:45.653Z,8.05
2018-09-25T00:38:45.572Z,8.15
2018-09-25T00:39:45.487Z,8.02
2018-09-25T00:40:45.409Z,8.04
2018-09-25T00:41:45.338Z,8.04
2018-09-25T00:42:45.253Z,8.05
2018-09-25T00:43:45.173Z,7.90
2018-09-25T00:44:45.100Z,7.90
2018-09-25T00:45:45.014Z,7.89
2018-09-25T00:46:44.939Z,7.86
2018-09-25T00:47:44.862Z,7.85
2018-09-25T00:48:44.779Z,7.89
2018-09-25T00:49:44.706Z,7.86
2018-09-25T00:50:44.626Z,7.80
2018-09-25T00:51:44.544Z,7.85
2018-09-25T00:52:44.469Z,7.83
2018-09-25T00:53:44.390Z,7.82
2018-09-25T00:54:44.310Z,7.86
2018-09-25T00:55:44.230Z,7.87
2018-09-25T00:56:44.153Z,7.90
2018-09-25T00:57:44.073Z,7.87
2018-09-25T00:58:43.996Z,7.86
2018-09-25T00:59:43.918Z,7.79
2018-09-25T01:00:43.837Z,7.69
2018-09-25T01:01:43.761Z,7.69
2018-09-25T01:02:43.682Z,7.67
2018-09-25T01:03:43.601Z,7.75
2018-09-25T01:04:43.527Z,7.67
2018-09-25T01:05:43.446Z,7.72
2018-09-25T01:06:43.364Z,7.69
2018-09-25T01:07:43.288Z,7.75
2018-09-25T01:08:43.210Z,7.71
2018-09-25T01:09:43.126Z,7.79
2018-09-25T01:10:43.051Z,7.77
2018-09-25T01:11:42.972Z,7.69
2018-09-25T01:12:42.894Z,7.71
2018-09-25T01:13:42.814Z,7.68
2018-09-25T01:14:42.735Z,7.71
2018-09-25T01:15:42.652Z,7.64
2018-09-25T01:16:42.577Z,7.63
2018-09-25T01:17:42.501Z,7.64
2018-09-25T01:18:42.420Z,7.64
2018-09-25T01:19:42.339Z,7.64
2018-09-25T01:20:42.266Z,7.63
2018-09-25T01:21:42.183Z,7.53
2018-09-25T01:22:42.105Z,7.58
2018-09-25T01:23:42.027Z,7.49
2018-09-25T01:24:41.944Z,7.48
2018-09-25T01:25:41.867Z,7.52
2018-09-25T01:26:41.792Z,7.49
2018-09-25T01:27:41.710Z,7.48
2018-09-25T01:28:41.633Z,7.57
2018-09-25T01:29:41.557Z,7.60
2018-09-25T01:30:41.473Z,7.67
2018-09-25T01:31:41.393Z,7.55
2018-09-25T01:32:41.318Z,7.52
2018-09-25T01:33:41.235Z,7.68
2018-09-25T01:34:41.159Z,7.64
2018-09-25T01:35:41.087Z,7.63
2018-09-25T01:36:41.001Z,7.61
2018-09-25T01:37:40.922Z,7.64
2018-09-25T01:38:40.844Z,7.53
2018-09-25T01:39:40.762Z,7.53
2018-09-25T01:40:40.689Z,7.55
2018-09-25T01:41:40.607Z,7.40
2018-09-25T01:42:40.525Z,7.45
2018-09-25T01:43:40.449Z,7.55
2018-09-25T01:44:40.371Z,7.50
2018-09-25T01:45:40.284Z,7.52
2018-09-25T01:46:40.212Z,7.37
2018-09-25T01:47:40.132Z,7.39
2018-09-25T01:48:40.055Z,7.30
2018-09-25T01:49:39.975Z,7.30
2018-09-25T01:50:39.900Z,7.34
2018-09-25T01:51:39.815Z,7.25
2018-09-25T01:52:39.738Z,7.28
2018-09-25T01:53:39.660Z,7.25
2018-09-25T01:54:39.581Z,7.27
2018-09-25T01:55:39.507Z,7.30
2018-09-25T01:56:39.427Z,7.35
2018-09-25T01:57:39.342Z,7.37
2018-09-25T01:58:39.264Z,7.21
2018-09-25T01:59:39.184Z,7.23
2018-09-25T02:00:39.107Z,7.20
2018-09-25T02:01:39.024Z,7.10
2018-09-25T02:02:38.949Z,7.13
2018-09-25T02:03:38.872Z,7.24
2018-09-25T02:04:38.789Z,7.32
2018-09-25T02:05:38.754Z,7.39
2018-09-25T02:06:38.634Z,7.40
2018-09-25T02:07:38.550Z,7.32
2018-09-25T02:08:38.481Z,7.25
2018-09-25T02:09:38.397Z,7.21
2018-09-25T02:10:38.316Z,7.24
2018-09-25T02:11:38.237Z,7.17
2018-09-25T02:12:38.159Z,7.16
2018-09-25T02:13:38.077Z,7.17
2018-09-25T02:14:38.000Z,7.25
2018-09-25T02:15:37.920Z,7.30
2018-09-25T02:16:37.840Z,7.27
2018-09-25T02:17:37.763Z,7.25
2018-09-25T02:18:37.683Z,7.24
2018-09-25T02:19:37.602Z,7.16
2018-09-25T02:20:37.527Z,7.20
2018-09-25T02:21:37.448Z,7.17
2018-09-25T02:22:37.367Z,7.09
2018-09-25T02:23:37.292Z,7.16
2018-09-25T02:24:37.208Z,7.12
2018-09-25T02:25:37.129Z,7.15
2018-09-25T02:26:37.051Z,7.03
2018-09-25T02:27:36.972Z,6.98
2018-09-25T02:28:36.889Z,7.10
2018-09-25T02:29:36.819Z,7.12
2018-09-25T02:30:36.735Z,7.12
2018-09-25T02:31:36.653Z,7.06
2018-09-25T02:32:36.578Z,7.06
2018-09-25T02:33:36.497Z,6.98
2018-09-25T02:34:36.416Z,7.05
2018-09-25T02:35:36.338Z,7.10
2018-09-25T02:36:36.265Z,7.10
2018-09-25T02:37:36.179Z,7.20
2018-09-25T02:38:36.105Z,6.98
2018-09-25T02:39:36.023Z,6.85
2018-09-25T02:40:35.941Z,6.81
2018-09-25T02:41:35.862Z,6.91
2018-09-25T02:42:35.792Z,6.87
2018-09-25T02:43:35.723Z,6.79
2018-09-25T02:44:35.625Z,6.71
2018-09-25T02:45:35.552Z,6.61
2018-09-25T02:46:35.468Z,6.61
2018-09-25T02:47:35.385Z,6.69
2018-09-25T02:48:35.310Z,6.61
2018-09-25T02:49:35.230Z,6.62
2018-09-25T02:50:35.151Z,6.62
2018-09-25T02:51:35.072Z,6.62
2018-09-25T02:52:35.009Z,6.59
2018-09-25T02:53:34.912Z,6.55
2018-09-25T02:54:34.834Z,6.59
2018-09-25T02:55:34.756Z,6.54
2018-09-25T02:56:34.673Z,6.48
2018-09-25T02:57:34.591Z,6.56
2018-09-25T02:58:34.534Z,6.61
2018-09-25T02:59:34.432Z,6.77
2018-09-25T03:00:34.361Z,6.74
2018-09-25T03:01:34.281Z,6.69
2018-09-25T03:02:34.199Z,6.70
2018-09-25T03:03:34.119Z,6.66
2018-09-25T03:04:34.039Z,6.55
2018-09-25T03:05:33.963Z,6.62
2018-09-25T03:06:33.881Z,6.73
2018-09-25T03:07:33.801Z,6.69
2018-09-25T03:08:33.722Z,6.71
2018-09-25T03:09:33.642Z,6.61
2018-09-25T03:10:33.573Z,6.73
2018-09-25T03:11:33.480Z,6.61
2018-09-25T03:12:33.403Z,6.58
2018-09-25T03:13:33.320Z,6.66
2018-09-25T03:14:33.246Z,6.55
2018-09-25T03:15:33.167Z,6.59
2018-09-25T03:16:33.087Z,6.69
2018-09-25T03:17:33.002Z,6.76
2018-09-25T03:18:32.926Z,6.58
2018-09-25T03:19:32.847Z,6.73
2018-09-25T03:20:32.770Z,6.71
2018-09-25T03:21:32.709Z,6.71
2018-09-25T03:22:32.608Z,6.76
2018-09-25T03:23:32.535Z,6.61
2018-09-25T03:24:32.450Z,6.59
2018-09-25T03:25:32.375Z,6.59
2018-09-25T03:26:32.293Z,6.44
2018-09-25T03:27:32.212Z,6.52
2018-09-25T03:28:32.131Z,6.46
2018-09-25T03:29:32.051Z,6.38
2018-09-25T03:30:31.974Z,6.44
2018-09-25T03:31:31.892Z,6.27
2018-09-25T03:32:31.814Z,6.38
2018-09-25T03:33:31.732Z,6.34
2018-09-25T03:34:31.653Z,6.28
2018-09-25T03:35:31.581Z,6.31
2018-09-25T03:36:31.492Z,6.28
2018-09-25T03:37:31.414Z,6.34
2018-09-25T03:38:31.340Z,6.31
2018-09-25T03:39:31.252Z,6.28
2018-09-25T03:40:31.175Z,6.33
2018-09-25T03:41:31.095Z,6.41
2018-09-25T03:42:31.014Z,6.30
2018-09-25T03:43:30.933Z,6.15
2018-09-25T03:44:30.855Z,6.31
2018-09-25T03:45:30.781Z,6.28
2018-09-25T03:46:30.706Z,6.27
2018-09-25T03:47:30.616Z,6.11
2018-09-25T03:48:30.530Z,6.03
2018-09-25T03:49:30.456Z,5.96
2018-09-25T03:50:30.377Z,6.08
2018-09-25T03:51:30.296Z,6.01
2018-09-25T03:52:30.218Z,6.00
2018-09-25T03:53:30.137Z,5.94
2018-09-25T03:54:30.057Z,5.96
2018-09-25T03:55:29.976Z,5.99
2018-09-25T03:56:29.897Z,5.93
2018-09-25T03:57:29.821Z,5.99
2018-09-25T03:58:29.738Z,5.93
2018-09-25T03:59:29.686Z,6.03
2018-09-25T04:00:29.578Z,6.04
2018-09-25T04:01:29.498Z,6.00
2018-09-25T04:02:29.418Z,5.99
2018-09-25T04:03:29.342Z,5.99
2018-09-25T04:04:29.259Z,5.99
2018-09-25T04:05:29.184Z,5.97
2018-09-25T04:06:29.102Z,6.01
2018-09-25T04:07:29.017Z,5.99
2018-09-25T04:08:28.939Z,5.94
2018-09-25T04:09:28.858Z,5.96
2018-09-25T04:10:28.776Z,5.96
2018-09-25T04:11:28.698Z,6.01
2018-09-25T04:12:28.614Z,6.01
2018-09-25T04:13:28.539Z,5.91
2018-09-25T04:14:28.461Z,6.08
2018-09-25T04:15:28.381Z,6.09
2018-09-25T04:16:28.299Z,6.09
2018-09-25T04:17:28.217Z,6.01
2018-09-25T04:18:28.141Z,6.00
2018-09-25T04:19:28.060Z,6.00
2018-09-25T04:20:27.977Z,6.00
2018-09-25T04:21:27.896Z,5.99
2018-09-25T04:22:27.819Z,5.94
2018-09-25T04:23:27.739Z,5.91
2018-09-25T04:24:27.661Z,5.90
2018-09-25T04:25:27.580Z,5.83
2018-09-25T04:26:27.496Z,5.93
2018-09-25T04:27:27.416Z,5.97
2018-09-25T04:28:27.429Z,5.90
2018-09-25T04:29:27.265Z,5.86
2018-09-25T04:30:27.177Z,5.94
2018-09-25T04:31:27.097Z,6.06
2018-09-25T04:32:27.017Z,6.08
2018-09-25T04:33:26.938Z,6.06
2018-09-25T04:34:26.866Z,5.97
2018-09-25T04:35:26.775Z,5.96
2018-09-25T04:36:26.697Z,5.96
2018-09-25T04:37:26.615Z,5.90
2018-09-25T04:38:26.536Z,5.89
2018-09-25T04:39:26.458Z,5.93
2018-09-25T04:40:26.379Z,5.93
2018-09-25T04:41:26.299Z,5.91
2018-09-25T04:42:26.215Z,5.93
2018-09-25T04:43:26.134Z,5.83
2018-09-25T04:44:26.057Z,5.94
2018-09-25T04:45:25.976Z,5.90
2018-09-25T04:46:25.893Z,5.90
2018-09-25T04:47:25.815Z,5.94
2018-09-25T04:48:25.733Z,5.93
2018-09-25T04:49:25.656Z,5.89
2018-09-25T04:50:25.574Z,5.85
2018-09-25T04:51:25.492Z,5.82
2018-09-25T04:52:25.416Z,5.96
2018-09-25T04:53:25.337Z,5.90
2018-09-25T04:54:25.251Z,5.90
2018-09-25T04:55:25.173Z,5.81
2018-09-25T04:56:25.091Z,5.83
2018-09-25T04:57:25.014Z,5.82
2018-09-25T04:58:24.928Z,5.76
2018-09-25T04:59:24.852Z,5.78
2018-09-25T05:00:24.772Z,5.85
2018-09-25T05:01:24.692Z,5.83
2018-09-25T05:02:24.613Z,5.81
2018-09-25T05:03:24.529Z,5.75
2018-09-25T05:04:24.451Z,5.63
2018-09-25T05:05:24.371Z,5.68
2018-09-25T05:06:24.294Z,5.64
2018-09-25T05:07:24.208Z,5.71
2018-09-25T05:08:24.130Z,5.76
2018-09-25T05:09:24.064Z,5.65
2018-09-25T05:10:23.974Z,5.61
2018-09-25T05:11:23.889Z,5.60
2018-09-25T05:12:23.807Z,5.81
2018-09-25T05:13:23.727Z,5.72
2018-09-25T05:14:23.653Z,5.68
2018-09-25T05:15:23.573Z,5.79
2018-09-25T05:16:23.488Z,5.75
2018-09-25T05:17:23.408Z,5.75
2018-09-25T05:18:23.327Z,5.65
2018-09-25T05:19:23.251Z,5.65
2018-09-25T05:20:23.164Z,5.65
2018-09-25T05:21:23.088Z,5.46
2018-09-25T05:22:23.007Z,5.58
2018-09-25T05:23:22.955Z,5.51
2018-09-25T05:24:22.847Z,5.45
2018-09-25T05:25:22.765Z,5.45
2018-09-25T05:26:22.686Z,5.49
2018-09-25T05:27:22.602Z,5.57
2018-09-25T05:28:22.523Z,5.46
2018-09-25T05:29:22.442Z,5.51
2018-09-25T05:30:22.364Z,5.49
2018-09-25T05:31:22.282Z,5.61
2018-09-25T05:32:22.204Z,5.60
2018-09-25T05:33:22.117Z,5.61
2018-09-25T05:34:22.041Z,5.63
2018-09-25T05:35:21.961Z,5.65
2018-09-25T05:36:21.894Z,5.64
2018-09-25T05:37:21.801Z,5.60
2018-09-25T05:38:21.742Z,5.54
2018-09-25T05:39:21.675Z,5.54
2018-09-25T05:40:21.558Z,5.53
2018-09-25T05:41:21.477Z,5.51
2018-09-25T05:42:21.399Z,5.48
2018-09-25T05:43:21.314Z,5.39
2018-09-25T05:44:21.236Z,5.48
2018-09-25T05:45:21.156Z,5.42
2018-09-25T05:46:21.083Z,5.39
2018-09-25T05:47:20.993Z,5.38
2018-09-25T05:48:20.984Z,5.35
2018-09-25T05:49:20.831Z,5.35
2018-09-25T05:50:20.752Z,5.22
2018-09-25T05:51:20.676Z,5.27
2018-09-25T05:52:20.592Z,5.21
2018-09-25T05:53:20.510Z,5.22
2018-09-25T05:54:20.433Z,5.30
2018-09-25T05:55:20.349Z,5.39
2018-09-25T05:56:20.275Z,5.43
2018-09-25T05:57:20.191Z,5.53
2018-09-25T05:58:20.113Z,5.61
2018-09-25T05:59:20.035Z,5.46
2018-09-25T06:00:19.951Z,5.67
2018-09-25T06:01:19.869Z,5.61
2018-09-25T06:02:19.790Z,5.63
2018-09-25T06:03:19.709Z,5.63
2018-09-25T06:04:19.626Z,5.53
2018-09-25T06:05:19.584Z,5.53
2018-09-25T06:06:19.467Z,5.49
2018-09-25T06:07:19.383Z,5.53
2018-09-25T06:08:19.308Z,5.45
2018-09-25T06:09:19.295Z,5.39
2018-09-25T06:10:19.144Z,5.33
2018-09-25T06:11:19.064Z,5.30
2018-09-25T06:12:18.985Z,5.40
2018-09-25T06:13:18.902Z,5.38
2018-09-25T06:14:18.823Z,5.39
2018-09-25T06:15:18.741Z,5.43
2018-09-25T06:16:18.662Z,5.49
2018-09-25T06:17:18.582Z,5.49
2018-09-25T06:18:18.507Z,5.46
2018-09-25T06:19:18.421Z,5.45
2018-09-25T06:20:18.337Z,5.51
2018-09-25T06:21:18.270Z,5.56
2018-09-25T06:22:18.183Z,5.60
2018-09-25T06:23:18.103Z,5.60
2018-09-25T06:24:18.019Z,5.61
2018-09-25T06:25:17.938Z,5.67
2018-09-25T06:26:17.860Z,5.63
2018-09-25T06:27:17.777Z,5.60
2018-09-25T06:28:17.696Z,5.65
2018-09-25T06:29:17.615Z,5.65
2018-09-25T06:30:17.538Z,5.46
2018-09-25T06:31:17.456Z,5.58
2018-09-25T06:32:17.375Z,5.53
2018-09-25T06:33:17.296Z,5.46
2018-09-25T06:34:17.217Z,5.60
2018-09-25T06:35:17.133Z,5.67
2018-09-25T06:36:17.059Z,5.72
2018-09-25T06:37:17.021Z,5.90
2018-09-25T06:38:16.896Z,5.83
2018-09-25T06:39:16.813Z,5.81
2018-09-25T06:40:16.738Z,5.81
2018-09-25T06:41:16.654Z,5.83
2018-09-25T06:42:16.574Z,5.79
2018-09-25T06:43:16.491Z,5.82
2018-09-25T06:44:16.417Z,6.00
2018-09-25T06:45:16.333Z,6.00
2018-09-25T06:46:16.266Z,5.99
2018-09-25T06:47:16.233Z,5.93
2018-09-25T06:48:16.094Z,5.93
2018-09-25T06:49:16.013Z,5.83
2018-09-25T06:50:15.932Z,5.96
2018-09-25T06:51:15.850Z,6.00
2018-09-25T06:52:15.776Z,5.99
2018-09-25T06:53:15.691Z,5.94
2018-09-25T06:54:15.613Z,5.97
2018-09-25T06:55:15.558Z,6.00
2018-09-25T06:56:15.452Z,5.96
2018-09-25T06:57:15.372Z,5.99
2018-09-25T06:58:15.292Z,5.99
2018-09-25T06:59:15.210Z,5.96
2018-09-25T07:00:15.132Z,6.00
2018-09-25T07:01:15.051Z,6.04
2018-09-25T07:02:14.975Z,6.14
2018-09-25T07:03:14.891Z,6.25
2018-09-25T07:04:14.813Z,6.21
2018-09-25T07:05:14.733Z,6.15
2018-09-25T07:06:14.651Z,6.21
2018-09-25T07:07:14.571Z,6.15
2018-09-25T07:08:14.495Z,6.25
2018-09-25T07:09:14.413Z,6.41
2018-09-25T07:10:14.507Z,6.41
2018-09-25T07:11:14.251Z,6.33
2018-09-25T07:12:14.173Z,6.38
2018-09-25T07:13:14.093Z,6.22
2018-09-25T07:14:14.017Z,6.21
2018-09-25T07:15:13.935Z,6.41
2018-09-25T07:16:13.855Z,6.30
2018-09-25T07:17:13.778Z,6.40
2018-09-25T07:18:13.695Z,6.38
2018-09-25T07:19:13.614Z,6.40
2018-09-25T07:20:13.539Z,6.48
2018-09-25T07:21:13.455Z,6.49
2018-09-25T07:22:13.378Z,6.62
2018-09-25T07:23:13.295Z,6.71
2018-09-25T07:24:13.216Z,6.70
2018-09-25T07:25:13.224Z,6.74
2018-09-25T07:26:13.060Z,6.73
2018-09-25T07:27:12.984Z,6.70
2018-09-25T07:28:12.900Z,6.74
2018-09-25T07:29:12.821Z,6.56
2018-09-25T07:30:12.742Z,6.76
2018-09-25T07:31:12.657Z,6.81
2018-09-25T07:32:12.581Z,6.87
2018-09-25T07:33:12.502Z,6.92
2018-09-25T07:34:12.423Z,6.97
2018-09-25T07:35:12.342Z,7.09
2018-09-25T07:36:12.270Z,7.25
2018-09-25T07:37:12.186Z,7.35
2018-09-25T07:38:12.102Z,7.42
2018-09-25T07:39:12.025Z,7.50
2018-09-25T07:40:11.950Z,7.57
2018-09-25T07:41:11.866Z,7.49
2018-09-25T07:42:11.787Z,7.67
2018-09-25T07:43:11.722Z,7.63
2018-09-25T07:44:11.625Z,7.71
2018-09-25T07:45:11.550Z,7.72
2018-09-25T07:46:11.468Z,7.68
2018-09-25T07:47:11.389Z,7.69
2018-09-25T07:48:11.366Z,7.79
2018-09-25T07:49:11.239Z,7.87
2018-09-25T07:50:11.150Z,7.92
2018-09-25T07:51:11.069Z,8.04
2018-09-25T07:52:10.995Z,8.18
2018-09-25T07:53:10.913Z,8.12
2018-09-25T07:54:10.853Z,8.12
2018-09-25T07:55:10.756Z,8.23
2018-09-25T07:56:10.673Z,8.30
2018-09-25T07:57:10.594Z,8.29
2018-09-25T07:58:10.520Z,8.33
2018-09-25T07:59:10.444Z,8.34
2018-09-25T08:00:10.361Z,8.43
2018-09-25T08:01:10.286Z,8.41
2018-09-25T08:02:10.203Z,8.53
2018-09-25T08:03:10.163Z,8.62
2018-09-25T08:04:10.047Z,8.56
2018-09-25T08:05:09.969Z,8.55
2018-09-25T08:06:09.890Z,8.63
2018-09-25T08:07:09.809Z,8.81
2018-09-25T08:08:09.736Z,8.83
2018-09-25T08:09:09.686Z,8.92
2018-09-25T08:10:09.575Z,8.89
2018-09-25T08:11:09.495Z,8.99
2018-09-25T08:12:09.418Z,8.96
2018-09-25T08:13:09.339Z,8.98
2018-09-25T08:14:09.261Z,9.05
2018-09-25T08:15:09.181Z,9.15
2018-09-25T08:16:09.108Z,9.29
2018-09-25T08:17:09.027Z,9.33
2018-09-25T08:18:08.950Z,9.39
2018-09-25T08:19:08.868Z,9.48
2018-09-25T08:20:08.789Z,9.48
2018-09-25T08:21:08.712Z,9.53
2018-09-25T08:22:08.640Z,9.61
2018-09-25T08:23:08.559Z,9.74
2018-09-25T08:24:08.477Z,9.84
2018-09-25T08:25:08.403Z,9.96
2018-09-25T08:26:08.323Z,9.93
2018-09-25T08:27:08.245Z,9.97
2018-09-25T08:28:08.174Z,10.08
2018-09-25T08:29:08.090Z,10.05
2018-09-25T08:30:08.011Z,10.18
2018-09-25T08:31:07.944Z,10.26
2018-09-25T08:32:07.853Z,10.26
2018-09-25T08:33:07.786Z,10.41
2018-09-25T08:34:07.699Z,10.55
2018-09-25T08:35:07.625Z,10.47
2018-09-25T08:36:07.544Z,10.55
2018-09-25T08:37:07.470Z,10.61
2018-09-25T08:38:07.389Z,10.71
2018-09-25T08:39:07.370Z,10.68
2018-09-25T08:40:07.234Z,10.81
2018-09-25T08:41:07.159Z,10.85
2018-09-25T08:42:07.082Z,10.86
2018-09-25T08:43:07.000Z,10.85
2018-09-25T08:44:06.924Z,10.92
2018-09-25T08:45:06.849Z,11.04
2018-09-25T08:46:06.772Z,11.14
2018-09-25T08:47:06.693Z,11.35
2018-09-25T08:48:06.615Z,11.60
2018-09-25T08:49:06.541Z,11.62
2018-09-25T08:50:06.464Z,11.94
2018-09-25T08:51:06.386Z,12.34
2018-09-25T08:52:06.311Z,12.54
2018-09-25T08:53:06.236Z,12.75
2018-09-25T08:54:06.157Z,13.00
2018-09-25T08:55:06.083Z,13.46
2018-09-25T08:56:06.006Z,14.51
2018-09-25T08:57:05.926Z,15.53
2018-09-25T08:58:05.852Z,15.32
2018-09-25T08:59:05.777Z,15.31
2018-09-25T09:00:05.698Z,15.47
2018-09-25T09:01:05.686Z,15.54
2018-09-25T09:02:05.547Z,16.12
2018-09-25T09:03:05.470Z,16.43
2018-09-25T09:04:05.395Z,16.04
2018-09-25T09:05:05.320Z,16.28
2018-09-25T09:06:05.245Z,16.45
2018-09-25T09:07:05.169Z,16.60
2018-09-25T09:08:05.096Z,16.85
2018-09-25T09:09:05.019Z,16.78
2018-09-25T09:10:04.948Z,16.57
2018-09-25T09:11:04.869Z,16.57
2018-09-25T09:12:04.796Z,16.42
2018-09-25T09:13:04.724Z,16.11
2018-09-25T09:14:04.683Z,16.08
2018-09-25T09:15:04.571Z,16.38
2018-09-25T09:16:04.496Z,16.81
2018-09-25T09:17:04.421Z,17.26
2018-09-25T09:18:04.350Z,17.86
2018-09-25T09:19:04.281Z,18.25
2018-09-25T09:20:04.238Z,18.75
2018-09-25T09:21:04.133Z,18.85
2018-09-25T09:22:04.051Z,18.82
2018-09-25T09:23:03.974Z,18.32
2018-09-25T09:24:03.903Z,17.77
2018-09-25T09:25:03.887Z,17.23
2018-09-25T09:26:03.757Z,16.27
2018-09-25T09:27:03.683Z,16.50
2018-09-25T09:28:03.608Z,16.61
2018-09-25T09:29:03.535Z,17.15
2018-09-25T09:30:03.469Z,17.90
2018-09-25T09:31:03.391Z,18.55
2018-09-25T09:32:03.319Z,18.98
2018-09-25T09:33:03.240Z,19.54
2018-09-25T09:34:03.172Z,19.87
2018-09-25T09:35:03.096Z,20.08
2018-09-25T09:36:03.023Z,20.02
2018-09-25T09:37:02.949Z,20.41
2018-09-25T09:38:02.879Z,19.55
2018-09-25T09:39:02.800Z,18.37
2018-09-25T09:40:02.731Z,18.36
2018-09-25T09:41:02.698Z,18.54
2018-09-25T09:42:02.753Z,18.57
2018-09-25T09:43:02.513Z,18.29
2018-09-25T09:44:02.441Z,18.11
2018-09-25T09:45:02.369Z,17.93
2018-09-25T09:46:02.295Z,17.84
2018-09-25T09:47:02.225Z,18.11
2018-09-25T09:48:02.150Z,19.04
2018-09-25T09:49:02.079Z,19.55
2018-09-25T09:50:02.006Z,20.06
2018-09-25T09:51:01.929Z,19.31
2018-09-25T09:52:01.864Z,18.87
2018-09-25T09:53:01.789Z,18.47
2018-09-25T09:54:01.719Z,17.95
2018-09-25T09:55:01.644Z,17.37
2018-09-25T09:56:01.572Z,17.23
2018-09-25T09:57:01.498Z,17.36
2018-09-25T09:58:01.423Z,17.55
2018-09-25T09:59:01.361Z,17.75
2018-09-25T10:00:01.282Z,17.93
2018-09-25T10:01:01.212Z,17.41
2018-09-25T10:02:01.139Z,16.88
2018-09-25T10:03:01.062Z,16.64
2018-09-25T10:04:00.994Z,16.68
2018-09-25T10:05:00.927Z,16.81
2018-09-25T10:06:00.850Z,17.00
2018-09-25T10:07:00.799Z,17.15
2018-09-25T10:08:00.712Z,17.59
2018-09-25T10:09:00.632Z,17.82
2018-09-25T10:10:00.559Z,17.82
2018-09-25T10:11:00.489Z,17.78
2018-09-25T10:12:00.417Z,17.72
2018-09-25T10:13:00.343Z,17.49
2018-09-25T10:14:00.273Z,17.26
2018-09-25T10:15:00.199Z,16.98
2018-09-25T10:16:00.127Z,16.94
2018-09-25T10:17:00.054Z,16.94
2018-09-25T10:17:59.987Z,16.98
2018-09-25T10:18:59.954Z,16.86
2018-09-25T10:19:59.837Z,16.58
2018-09-25T10:20:59.764Z,16.27
2018-09-25T10:21:59.696Z,16.00
2018-09-25T10:22:59.644Z,15.92
2018-09-25T10:23:59.547Z,15.82
2018-09-25T10:24:59.481Z,15.62
2018-09-25T10:25:59.407Z,15.68
2018-09-25T10:26:59.328Z,15.51
2018-09-25T10:27:59.259Z,15.34
2018-09-25T10:28:59.190Z,15.16
2018-09-25T10:29:59.116Z,15.16
2018-09-25T10:30:59.040Z,15.06
2018-09-25T10:31:58.966Z,15.25
2018-09-25T10:32:58.894Z,15.44
2018-09-25T10:33:58.827Z,15.65
2018-09-25T10:34:58.747Z,15.84
2018-09-25T10:35:58.673Z,15.94
2018-09-25T10:36:58.601Z,15.86
2018-09-25T10:37:58.532Z,15.72
2018-09-25T10:38:58.456Z,15.57
2018-09-25T10:39:58.381Z,15.69
2018-09-25T10:40:58.328Z,15.67
2018-09-25T10:41:58.236Z,15.60
2018-09-25T10:42:58.167Z,15.65
2018-09-25T10:43:58.088Z,15.57
2018-09-25T10:44:58.015Z,15.72
2018-09-25T10:45:57.945Z,15.71
2018-09-25T10:46:57.872Z,15.60
2018-09-25T10:47:57.795Z,15.62
2018-09-25T10:48:57.721Z,15.67
2018-09-25T10:49:57.658Z,15.80
2018-09-25T10:50:57.577Z,15.93
2018-09-25T10:51:57.501Z,15.93
2018-09-25T10:52:57.427Z,15.94
2018-09-25T10:53:57.360Z,15.90
2018-09-25T10:54:57.284Z,15.83
2018-09-25T10:55:57.318Z,15.74
2018-09-25T10:56:57.138Z,15.72
2018-09-25T10:57:57.066Z,15.80
2018-09-25T10:58:56.988Z,15.90
2018-09-25T10:59:56.914Z,16.07
2018-09-25T11:00:56.846Z,16.15
2018-09-25T11:01:56.770Z,16.14
2018-09-25T11:02:56.828Z,16.14
2018-09-25T11:03:56.623Z,16.30
2018-09-25T11:04:56.550Z,16.20
2018-09-25T11:05:56.476Z,16.23
2018-09-25T11:06:56.407Z,16.21
2018-09-25T11:07:56.330Z,16.38
2018-09-25T11:08:56.256Z,16.52
2018-09-25T11:09:56.232Z,16.53
2018-09-25T11:10:56.111Z,16.73
2018-09-25T11:11:56.041Z,17.12
2018-09-25T11:12:55.967Z,17.36
2018-09-25T11:13:55.892Z,17.40
2018-09-25T11:14:55.827Z,17.37
2018-09-25T11:15:55.750Z,17.33
2018-09-25T11:16:55.673Z,17.30
2018-09-25T11:17:55.600Z,17.18
2018-09-25T11:18:55.527Z,17.03
2018-09-25T11:19:55.455Z,16.98
2018-09-25T11:20:55.384Z,16.96
2018-09-25T11:21:55.312Z,17.04
2018-09-25T11:22:55.240Z,17.03
2018-09-25T11:23:55.167Z,16.66
2018-09-25T11:24:55.091Z,16.73
2018-09-25T11:25:55.021Z,16.39
2018-09-25T11:26:54.949Z,16.38
2018-09-25T11:27:54.874Z,16.39
2018-09-25T11:28:54.804Z,16.46
2018-09-25T11:29:54.732Z,16.53
2018-09-25T11:30:54.658Z,16.75
2018-09-25T11:31:54.586Z,16.98
2018-09-25T11:32:54.519Z,17.26
2018-09-25T11:33:54.443Z,17.46
2018-09-25T11:34:54.377Z,17.40
2018-09-25T11:35:54.297Z,17.36
2018-09-25T11:36:54.226Z,17.26
2018-09-25T11:37:54.153Z,17.08
2018-09-25T11:38:54.081Z,17.11
2018-09-25T11:39:54.009Z,17.19
2018-09-25T11:40:53.962Z,17.19
2018-09-25T11:41:53.872Z,17.12
2018-09-25T11:42:53.793Z,17.16
2018-09-25T11:43:53.721Z,17.19
2018-09-25T11:44:53.650Z,17.38
2018-09-25T11:45:53.629Z,17.30
2018-09-25T11:46:53.590Z,17.22
2018-09-25T11:47:53.439Z,17.28
2018-09-25T11:48:53.370Z,16.91
2018-09-25T11:49:53.302Z,16.82
2018-09-25T11:50:53.220Z,16.76
2018-09-25T11:51:53.149Z,16.68
2018-09-25T11:52:53.104Z,16.61
2018-09-25T11:53:53.007Z,16.60
2018-09-25T11:54:52.939Z,16.56
2018-09-25T11:55:52.868Z,16.42
2018-09-25T11:56:52.791Z,16.34
2018-09-25T11:57:52.718Z,16.35
2018-09-25T11:58:52.648Z,16.39
2018-09-25T11:59:52.575Z,16.41
2018-09-25T12:00:52.505Z,16.43
2018-09-25T12:01:52.437Z,16.33
2018-09-25T12:02:52.360Z,16.39
2018-09-25T12:03:52.289Z,16.30
2018-09-25T12:04:52.214Z,16.27
2018-09-25T12:05:52.146Z,16.20
2018-09-25T12:06:52.071Z,16.21
2018-09-25T12:07:52.002Z,16.02
2018-09-25T12:08:51.931Z,16.00
2018-09-25T12:09:51.853Z,15.94
2018-09-25T12:10:51.782Z,15.90
2018-09-25T12:11:51.709Z,15.93
2018-09-25T12:12:51.639Z,15.86
2018-09-25T12:13:51.599Z,15.83
2018-09-25T12:14:51.491Z,15.80
2018-09-25T12:15:51.422Z,15.78
2018-09-25T12:16:51.349Z,15.83
2018-09-25T12:17:51.276Z,15.87
2018-09-25T12:18:51.202Z,15.82
2018-09-25T12:19:51.150Z,15.76
2018-09-25T12:20:51.058Z,15.72
2018-09-25T12:21:50.987Z,15.67
2018-09-25T12:22:50.910Z,15.72
2018-09-25T12:23:50.842Z,15.69
2018-09-25T12:24:50.768Z,15.65
2018-09-25T12:25:50.695Z,15.67
2018-09-25T12:26:50.620Z,15.60
2018-09-25T12:27:50.548Z,15.71
2018-09-25T12:28:50.476Z,15.43
2018-09-25T12:29:50.401Z,15.50
2018-09-25T12:30:50.330Z,15.51
2018-09-25T12:31:50.256Z,15.46
2018-09-25T12:32:50.190Z,15.57
2018-09-25T12:33:50.118Z,15.71
2018-09-25T12:34:50.042Z,15.71
2018-09-25T12:35:49.962Z,15.59
2018-09-25T12:36:49.884Z,15.59
2018-09-25T12:37:49.818Z,15.60
2018-09-25T12:38:49.745Z,15.64
2018-09-25T12:39:49.675Z,15.71
2018-09-25T12:40:49.711Z,15.80
2018-09-25T12:41:49.526Z,15.86
2018-09-25T12:42:49.454Z,15.93
2018-09-25T12:43:49.379Z,15.76
2018-09-25T12:44:49.306Z,15.71
2018-09-25T12:45:49.237Z,15.74
2018-09-25T12:46:49.161Z,15.57
2018-09-25T12:47:49.087Z,15.60
2018-09-25T12:48:49.016Z,15.59
2018-09-25T12:49:48.944Z,15.56
2018-09-25T12:50:48.868Z,15.64
2018-09-25T12:51:48.793Z,15.57
2018-09-25T12:52:48.727Z,15.67
2018-09-25T12:53:48.656Z,15.69
2018-09-25T12:54:48.580Z,15.74
2018-09-25T12:55:48.501Z,15.68
2018-09-25T12:56:48.429Z,15.57
2018-09-25T12:57:48.364Z,15.53
2018-09-25T12:58:48.296Z,15.56
2018-09-25T12:59:48.209Z,15.57
2018-09-25T13:00:48.136Z,15.69
2018-09-25T13:01:48.064Z,15.71
2018-09-25T13:02:48.025Z,15.75
2018-09-25T13:03:47.957Z,15.69
2018-09-25T13:04:47.842Z,15.71
2018-09-25T13:05:47.771Z,15.69
2018-09-25T13:06:47.695Z,15.86
2018-09-25T13:07:47.631Z,15.82
2018-09-25T13:08:47.550Z,15.87